Time;durP1;ratioP1;P1;durP2;ratioP2;P2;SDS_P1;SDS_P2;PMS_P1;PMS_P2;Temp;Humidity;BMP_temperature;BMP_pressure;BME280_temperature;BME280_humidity;BME280_pressure;Samples;Min_cycle;Max_cycle;Signal;HPM_P1;HPM_P2
2023/02/06 00:00:39;;;;;;;3.45;1.02;;;28.40;56.20;;;;;;4151822;28;20414;-45
2023/02/06 00:03:02;;;;;;;3.97;0.85;;;28.40;56.00;;;;;;4153662;28;20420;-43
2023/02/06 00:05:24;;;;;;;3.92;0.73;;;28.40;55.80;;;;;;4151646;28;20122;-42
2023/02/06 00:07:47;;;;;;;3.70;1.20;;;28.40;55.60;;;;;;4154679;28;20033;-38
2023/02/06 00:10:09;;;;;;;2.10;0.90;;;28.50;54.60;;;;;;4154857;28;20061;-43
2023/02/06 00:12:32;;;;;;;1.40;0.80;;;28.30;53.00;;;;;;4156867;28;20029;-47
2023/02/06 00:14:54;;;;;;;1.50;0.95;;;28.10;52.40;;;;;;4154844;28;20537;-44
2023/02/06 00:17:16;;;;;;;1.95;1.20;;;27.90;51.40;;;;;;4151525;28;20124;-40
2023/02/06 00:19:39;;;;;;;2.88;1.23;;;27.70;51.60;;;;;;4156862;28;20037;-41
2023/02/06 00:22:01;;;;;;;2.35;1.45;;;27.60;51.10;;;;;;4149922;28;20033;-40
2023/02/06 00:24:24;;;;;;;1.45;1.10;;;27.40;50.70;;;;;;4154740;28;20072;-42
2023/02/06 00:26:46;;;;;;;1.67;1.30;;;27.30;50.80;;;;;;4153359;28;20033;-45
2023/02/06 00:29:09;;;;;;;2.28;1.40;;;27.10;50.60;;;;;;4162473;28;20048;-41
2023/02/06 00:31:31;;;;;;;1.77;1.30;;;27.00;50.90;;;;;;4149615;28;20138;-40
2023/02/06 00:33:53;;;;;;;2.25;1.45;;;26.90;50.70;;;;;;4155346;28;20486;-43
2023/02/06 00:36:16;;;;;;;1.63;1.33;;;26.80;50.80;;;;;;4150118;28;20337;-41
2023/02/06 00:38:39;;;;;;;2.25;1.30;;;26.70;50.80;;;;;;4152829;28;20034;-42
2023/02/06 00:41:01;;;;;;;1.25;0.93;;;26.50;50.40;;;;;;4155399;28;20037;-39
2023/02/06 00:43:24;;;;;;;2.28;1.30;;;26.40;50.80;;;;;;4154693;28;20041;-40
2023/02/06 00:45:55;;;;;;;2.58;1.65;;;26.30;51.30;;;;;;4150985;28;20038;-39
2023/02/06 00:48:17;;;;;;;2.53;1.48;;;26.20;51.00;;;;;;4152860;28;20044;-47
2023/02/06 00:50:40;;;;;;;1.75;1.13;;;26.10;51.30;;;;;;4153139;28;20132;-40
2023/02/06 00:53:03;;;;;;;2.53;1.33;;;26.00;51.10;;;;;;4154827;28;20103;-41
2023/02/06 00:55:25;;;;;;;2.00;1.05;;;25.90;51.20;;;;;;4155063;28;20037;-44
2023/02/06 00:57:47;;;;;;;1.65;1.08;;;25.80;51.40;;;;;;4152736;28;20405;-41
2023/02/06 01:00:10;;;;;;;1.67;1.30;;;25.70;51.20;;;;;;4155570;28;20076;-41
2023/02/06 01:02:33;;;;;;;5.27;1.27;;;25.60;51.60;;;;;;4151580;28;20060;-45
2023/02/06 01:04:55;;;;;;;2.55;1.38;;;25.50;51.70;;;;;;4149865;28;20290;-46
2023/02/06 01:07:17;;;;;;;1.58;1.20;;;25.40;51.80;;;;;;4148626;28;20040;-41
2023/02/06 01:09:41;;;;;;;2.40;1.48;;;25.40;51.90;;;;;;4151769;28;20049;-46
2023/02/06 01:12:03;;;;;;;2.40;1.40;;;25.30;51.80;;;;;;4154727;28;20242;-42
2023/02/06 01:14:26;;;;;;;2.75;1.60;;;25.20;52.20;;;;;;4154153;28;20512;-39
2023/02/06 01:16:48;;;;;;;2.30;1.50;;;25.10;52.00;;;;;;4150338;28;20567;-41
2023/02/06 01:19:11;;;;;;;4.13;1.90;;;25.10;52.40;;;;;;4148618;28;20044;-39
2023/02/06 01:21:33;;;;;;;3.72;2.08;;;24.90;52.50;;;;;;4154179;28;20041;-45
2023/02/06 01:23:55;;;;;;;2.25;1.45;;;24.90;52.60;;;;;;4155516;28;20044;-48
2023/02/06 01:26:22;;;;;;;3.42;2.15;;;24.80;52.70;;;;;;4156170;28;20523;-45
2023/02/06 01:28:46;;;;;;;2.60;1.70;;;24.80;52.80;;;;;;4152149;28;20052;-41
2023/02/06 01:31:24;;;;;;;2.40;1.77;;;24.70;52.70;;;;;;4147368;28;20052;-40
2023/02/06 01:33:48;;;;;;;2.95;1.90;;;24.70;53.00;;;;;;4153386;28;20497;-44
2023/02/06 01:36:11;;;;;;;3.47;2.13;;;24.60;53.20;;;;;;4149525;28;20064;-42
2023/02/06 01:38:34;;;;;;;2.15;1.73;;;24.60;53.30;;;;;;4153403;28;20044;-43
2023/02/06 01:40:58;;;;;;;3.30;1.98;;;24.50;53.30;;;;;;4154904;28;20324;-43
2023/02/06 01:43:21;;;;;;;4.88;2.60;;;24.40;53.40;;;;;;4154617;28;20037;-40
2023/02/06 01:45:46;;;;;;;3.65;2.20;;;24.40;53.50;;;;;;4151670;28;20473;-41
2023/02/06 01:48:16;;;;;;;3.83;2.00;;;24.30;53.80;;;;;;4155231;28;20111;-40
2023/02/06 01:50:41;;;;;;;3.25;2.33;;;24.20;53.70;;;;;;4150840;28;20524;-40
2023/02/06 01:53:05;;;;;;;4.85;2.55;;;24.20;53.70;;;;;;4153788;28;20383;-39
2023/02/06 01:55:28;;;;;;;3.30;2.58;;;24.20;53.80;;;;;;4152785;28;20041;-42
2023/02/06 01:57:51;;;;;;;3.35;2.40;;;24.10;53.80;;;;;;4151757;28;20043;-48
2023/02/06 02:00:13;;;;;;;3.63;2.45;;;24.10;53.90;;;;;;4150663;28;20041;-40
2023/02/06 02:02:38;;;;;;;3.60;2.72;;;24.00;54.10;;;;;;4150017;28;20045;-39
2023/02/06 02:05:03;;;;;;;3.78;2.53;;;24.00;54.20;;;;;;4147234;28;20037;-44
2023/02/06 02:07:31;;;;;;;3.50;2.42;;;23.90;54.30;;;;;;4154592;28;20048;-43
2023/02/06 02:09:53;;;;;;;4.93;2.97;;;23.90;54.40;;;;;;4154154;28;20417;-40
2023/02/06 02:12:16;;;;;;;3.20;2.20;;;23.80;54.50;;;;;;4155111;28;20107;-40
2023/02/06 02:14:41;;;;;;;4.35;2.40;;;23.80;54.70;;;;;;4151215;28;20043;-41
2023/02/06 02:17:36;;;;;;;4.63;2.47;;;23.80;54.80;;;;;;4153471;28;20056;-43
2023/02/06 02:20:38;;;;;;;3.40;2.50;;;23.70;54.90;;;;;;4155295;28;20056;-39
2023/02/06 02:23:37;;;;;;;3.75;2.47;;;23.70;55.00;;;;;;4153251;28;20092;-43
2023/02/06 02:26:25;;;;;;;3.03;2.20;;;23.60;55.10;;;;;;4151205;28;20163;-41
2023/02/06 02:29:06;;;;;;;5.93;2.50;;;23.60;55.30;;;;;;4151580;28;20053;-41
2023/02/06 02:31:56;;;;;;;2.97;2.25;;;23.60;55.30;;;;;;4150147;28;20425;-46
2023/02/06 02:34:41;;;;;;;2.92;2.03;;;23.50;55.40;;;;;;4152153;28;20148;-43
2023/02/06 02:37:17;;;;;;;2.85;1.90;;;23.50;55.60;;;;;;4149481;28;20437;-42
2023/02/06 02:39:57;;;;;;;3.20;2.22;;;23.50;55.60;;;;;;4147825;28;20046;-44
2023/02/06 02:42:22;;;;;;;3.35;2.20;;;23.50;55.60;;;;;;4152603;28;20042;-39
2023/02/06 02:45:12;;;;;;;2.42;2.00;;;23.50;55.70;;;;;;4152956;28;20052;-46
2023/02/06 02:48:01;;;;;;;4.82;2.63;;;23.40;55.80;;;;;;4145749;28;20038;-42
2023/02/06 02:50:24;;;;;;;4.43;2.20;;;23.30;56.00;;;;;;4137106;28;20485;-41
2023/02/06 02:52:47;;;;;;;3.45;2.30;;;23.30;56.00;;;;;;4150824;28;20337;-44
2023/02/06 02:55:20;;;;;;;3.50;2.10;;;23.30;55.90;;;;;;4150258;28;20124;-45
2023/02/06 02:57:46;;;;;;;2.92;2.00;;;23.30;56.10;;;;;;4151695;28;20033;-41
2023/02/06 03:00:10;;;;;;;3.13;2.00;;;23.30;55.90;;;;;;4149480;28;20076;-46
2023/02/06 03:02:36;;;;;;;;;;;23.30;55.80;;;;;;4155404;28;20489;-43
2023/02/06 03:05:05;;;;;;;10.93;6.43;;;23.30;56.20;;;;;;4156427;28;20361;-45
2023/02/06 03:07:39;;;;;;;10.57;9.75;;;23.30;56.20;;;;;;4149201;28;20430;-46
2023/02/06 03:10:27;;;;;;;11.20;10.30;;;23.20;56.50;;;;;;4155053;28;20041;-40
2023/02/06 03:13:20;;;;;;;14.52;13.30;;;23.20;56.00;;;;;;4151478;28;20056;-43
2023/02/06 03:16:06;;;;;;;19.67;17.88;;;23.20;56.30;;;;;;4156695;28;20073;-45
2023/02/06 03:18:32;;;;;;;26.08;23.55;;;23.10;56.40;;;;;;4153858;28;20037;-41
2023/02/06 03:20:54;;;;;;;26.85;24.38;;;23.20;56.50;;;;;;4153328;28;20065;-50
2023/02/06 03:23:24;;;;;;;25.65;23.40;;;23.10;56.60;;;;;;4156255;28;20049;-46
2023/02/06 03:25:50;;;;;;;23.17;21.10;;;23.10;56.70;;;;;;4153488;28;20240;-41
2023/02/06 03:28:23;;;;;;;21.13;19.23;;;23.10;56.60;;;;;;4153941;28;20053;-41
2023/02/06 03:30:51;;;;;;;18.52;16.65;;;23.10;56.90;;;;;;4156021;28;20052;-43
2023/02/06 03:33:16;;;;;;;16.25;14.55;;;23.00;56.80;;;;;;4153091;28;20408;-42
2023/02/06 03:35:39;;;;;;;14.90;13.50;;;23.00;56.90;;;;;;4152125;28;20126;-41
2023/02/06 03:38:05;;;;;;;12.65;11.38;;;23.00;56.80;;;;;;4145789;28;20432;-42
2023/02/06 03:40:28;;;;;;;11.48;10.38;;;23.00;56.90;;;;;;4147082;28;20045;-42
2023/02/06 03:42:55;;;;;;;9.68;8.68;;;23.00;57.00;;;;;;4152843;28;20139;-43
2023/02/06 03:45:39;;;;;;;9.40;8.48;;;23.00;57.10;;;;;;4148550;28;20174;-41
2023/02/06 03:48:17;;;;;;;7.38;6.45;;;23.00;57.30;;;;;;4147061;28;20567;-46
2023/02/06 03:50:43;;;;;;;6.65;5.95;;;22.90;57.30;;;;;;4150815;28;20045;-42
2023/02/06 03:53:07;;;;;;;6.45;5.43;;;23.00;57.40;;;;;;4145130;28;20044;-43
2023/02/06 03:55:29;;;;;;;5.85;4.90;;;23.00;57.30;;;;;;4152169;28;20120;-41
2023/02/06 03:58:01;;;;;;;6.13;4.18;;;23.00;57.40;;;;;;4151137;28;20811;-43
2023/02/06 04:00:26;;;;;;;5.10;4.28;;;22.90;57.30;;;;;;4149455;28;20131;-41
2023/02/06 04:02:50;;;;;;;4.57;3.85;;;22.90;57.30;;;;;;4151247;28;20524;-42
2023/02/06 04:05:14;;;;;;;4.38;3.30;;;22.90;57.30;;;;;;4148807;28;20064;-42
2023/02/06 04:07:36;;;;;;;;;;;22.90;57.40;;;;;;4152925;28;20047;-42
2023/02/06 04:09:59;;;;;;;3.22;2.70;;;22.80;57.40;;;;;;4154869;28;20009;-44
2023/02/06 04:12:22;;;;;;;3.85;2.72;;;22.80;57.50;;;;;;4153084;28;20112;-42
2023/02/06 04:14:45;;;;;;;4.47;2.97;;;22.90;57.40;;;;;;4151407;28;20132;-46
2023/02/06 04:17:09;;;;;;;3.90;2.75;;;22.80;57.30;;;;;;4148747;28;20045;-43
2023/02/06 04:19:31;;;;;;;3.13;2.40;;;22.80;57.50;;;;;;4151880;28;20555;-42
2023/02/06 04:21:54;;;;;;;3.17;2.20;;;22.80;57.70;;;;;;4150581;28;20038;-43
2023/02/06 04:24:16;;;;;;;3.60;2.30;;;22.80;57.70;;;;;;4151035;28;20119;-42
2023/02/06 04:26:38;;;;;;;2.72;1.98;;;22.80;58.30;;;;;;4148231;28;20346;-41
2023/02/06 04:29:01;;;;;;;2.72;1.98;;;22.80;57.70;;;;;;4152592;28;20038;-42
2023/02/06 04:31:23;;;;;;;3.13;1.98;;;22.80;58.00;;;;;;4147466;28;20041;-42
2023/02/06 04:33:45;;;;;;;2.30;1.80;;;22.80;57.70;;;;;;4150530;28;20037;-41
2023/02/06 04:36:08;;;;;;;3.58;2.03;;;22.80;57.80;;;;;;4155234;28;20126;-45
2023/02/06 04:38:31;;;;;;;2.90;1.80;;;22.80;57.70;;;;;;4153652;28;20576;-44
2023/02/06 04:40:53;;;;;;;3.70;1.70;;;22.80;57.60;;;;;;4156008;28;20033;-42
2023/02/06 04:43:15;;;;;;;2.42;1.85;;;22.80;57.50;;;;;;4154053;28;20124;-43
2023/02/06 04:45:38;;;;;;;2.63;1.80;;;22.80;57.40;;;;;;4153036;28;20394;-44
2023/02/06 04:48:00;;;;;;;3.22;1.80;;;22.80;57.40;;;;;;4150478;28;20500;-44
2023/02/06 04:50:23;;;;;;;3.55;1.88;;;22.80;57.40;;;;;;4155509;28;20188;-42
2023/02/06 04:52:45;;;;;;;2.75;1.77;;;22.80;57.30;;;;;;4153031;28;20061;-43
2023/02/06 04:55:08;;;;;;;3.42;1.63;;;22.80;57.40;;;;;;4154168;28;20052;-42
2023/02/06 04:57:31;;;;;;;2.33;1.70;;;22.90;57.30;;;;;;4153093;28;20120;-42
2023/02/06 04:59:53;;;;;;;1.77;1.38;;;22.90;57.60;;;;;;4151594;28;20508;-42
2023/02/06 05:02:16;;;;;;;2.88;1.52;;;22.90;57.50;;;;;;4152926;28;20112;-45
2023/02/06 05:04:38;;;;;;;3.17;2.03;;;22.90;57.30;;;;;;4154315;28;20037;-44
2023/02/06 05:07:00;;;;;;;2.05;1.50;;;22.90;57.30;;;;;;4155945;28;20369;-45
2023/02/06 05:09:23;;;;;;;2.13;1.40;;;23.00;57.40;;;;;;4155378;28;20053;-45
2023/02/06 05:11:45;;;;;;;2.03;1.20;;;23.00;57.20;;;;;;4151883;28;20396;-39
2023/02/06 05:14:08;;;;;;;2.47;1.60;;;23.00;57.00;;;;;;4152562;28;20466;-41
2023/02/06 05:16:30;;;;;;;2.88;1.40;;;23.00;57.00;;;;;;4152164;28;20719;-46
2023/02/06 05:18:54;;;;;;;1.60;1.00;;;23.00;57.10;;;;;;4152815;28;20037;-41
2023/02/06 05:21:17;;;;;;;2.05;1.27;;;23.00;57.00;;;;;;4150013;28;20044;-43
2023/02/06 05:23:39;;;;;;;2.38;1.33;;;23.10;57.00;;;;;;4146257;28;20033;-42
2023/02/06 05:26:02;;;;;;;2.42;1.60;;;23.10;57.10;;;;;;4147899;28;20033;-41
2023/02/06 05:28:26;;;;;;;3.45;1.45;;;23.10;57.10;;;;;;4154314;28;20068;-41
2023/02/06 05:30:48;;;;;;;3.13;1.40;;;23.10;56.90;;;;;;4149761;28;20481;-43
2023/02/06 05:33:10;;;;;;;2.40;1.30;;;23.20;57.00;;;;;;4148369;28;20112;-40
2023/02/06 05:35:33;;;;;;;4.35;1.50;;;23.20;56.80;;;;;;4147547;28;20045;-41
2023/02/06 05:37:56;;;;;;;3.17;1.30;;;23.20;56.70;;;;;;4148646;28;20052;-43
2023/02/06 05:40:19;;;;;;;2.35;1.35;;;23.30;56.80;;;;;;4149074;28;20418;-41
2023/02/06 05:42:41;;;;;;;2.42;1.10;;;23.30;56.80;;;;;;4147645;28;20029;-43
2023/02/06 05:45:04;;;;;;;2.88;1.52;;;23.30;56.70;;;;;;4147047;28;20037;-42
2023/02/06 05:47:26;;;;;;;3.00;1.30;;;23.30;56.80;;;;;;4150223;28;20044;-43
2023/02/06 05:49:49;;;;;;;2.30;1.40;;;23.40;56.80;;;;;;4150972;28;20056;-43
2023/02/06 05:52:11;;;;;;;1.92;1.25;;;23.40;56.50;;;;;;4152773;28;20153;-42
2023/02/06 05:54:33;;;;;;;2.28;1.02;;;23.40;56.50;;;;;;4154643;28;20683;-45
2023/02/06 05:56:56;;;;;;;1.75;1.10;;;23.50;56.40;;;;;;4153164;28;20470;-40
2023/02/06 05:59:19;;;;;;;2.53;1.40;;;23.50;56.30;;;;;;4145750;28;20409;-39
2023/02/06 06:01:41;;;;;;;2.60;1.23;;;23.50;56.20;;;;;;4148888;28;20155;-42
2023/02/06 06:04:04;;;;;;;2.22;1.35;;;23.50;56.20;;;;;;4150027;28;20042;-45
2023/02/06 06:06:27;;;;;;;2.60;1.30;;;23.60;56.10;;;;;;4153054;28;20486;-43
2023/02/06 06:08:49;;;;;;;3.30;1.35;;;23.60;55.80;;;;;;4152561;28;20291;-43
2023/02/06 06:11:11;;;;;;;3.75;1.55;;;23.60;55.90;;;;;;4153029;28;20041;-45
2023/02/06 06:13:34;;;;;;;3.38;1.20;;;23.50;56.10;;;;;;4152726;28;20478;-41
2023/02/06 06:15:56;;;;;;;1.88;1.05;;;23.40;56.20;;;;;;4154380;28;20039;-42
2023/02/06 06:18:21;;;;;;;1.92;1.40;;;23.40;56.20;;;;;;4152519;28;20037;-43
2023/02/06 06:20:44;;;;;;;2.17;1.20;;;23.30;56.40;;;;;;4151775;28;20402;-46
2023/02/06 06:23:07;;;;;;;3.03;1.48;;;23.30;56.50;;;;;;4153644;28;20049;-41
2023/02/06 06:25:29;;;;;;;1.88;0.93;;;23.30;56.50;;;;;;4151396;28;20370;-45
2023/02/06 06:27:51;;;;;;;2.30;1.20;;;23.30;56.60;;;;;;4149766;28;20481;-42
2023/02/06 06:30:14;;;;;;;2.35;0.93;;;23.30;56.50;;;;;;4152005;28;20050;-47
2023/02/06 06:32:36;;;;;;;2.13;1.05;;;23.30;56.80;;;;;;4151399;28;20033;-45
2023/02/06 06:34:59;;;;;;;2.08;1.00;;;23.30;56.70;;;;;;4158709;28;20488;-44
2023/02/06 06:37:21;;;;;;;3.25;1.30;;;23.30;56.40;;;;;;4151319;28;20077;-46
2023/02/06 06:39:44;;;;;;;2.63;1.38;;;23.30;56.40;;;;;;4145576;28;20042;-42
2023/02/06 06:42:07;;;;;;;4.80;2.75;;;23.30;56.90;;;;;;4150091;28;20378;-46
2023/02/06 06:44:29;;;;;;;5.35;3.90;;;23.30;56.40;;;;;;4149675;28;20117;-43
2023/02/06 06:46:52;;;;;;;6.18;4.20;;;23.30;56.30;;;;;;4153474;28;20041;-42
2023/02/06 06:49:14;;;;;;;8.57;5.55;;;23.30;56.40;;;;;;4147980;28;20043;-44
2023/02/06 06:51:36;;;;;;;8.85;7.95;;;23.30;56.60;;;;;;4152826;28;20049;-41
2023/02/06 06:53:59;;;;;;;10.35;9.27;;;23.40;56.50;;;;;;4147169;28;20147;-44
2023/02/06 06:56:21;;;;;;;16.63;12.13;;;23.30;56.60;;;;;;4152705;28;20481;-44
2023/02/06 06:58:44;;;;;;;15.10;12.30;;;23.40;56.60;;;;;;4152549;28;20140;-42
2023/02/06 07:01:07;;;;;;;12.32;10.60;;;23.40;56.40;;;;;;4150199;28;20034;-42
2023/02/06 07:03:30;;;;;;;12.77;11.25;;;23.30;56.20;;;;;;4148206;28;20111;-41
2023/02/06 07:05:52;;;;;;;13.10;10.32;;;23.30;56.20;;;;;;4150225;28;20613;-44
2023/02/06 07:08:15;;;;;;;13.18;11.75;;;23.30;56.30;;;;;;4152262;28;20061;-43
2023/02/06 07:10:37;;;;;;;12.30;10.98;;;23.30;56.10;;;;;;4152144;28;20061;-44
2023/02/06 07:12:59;;;;;;;13.70;10.90;;;23.20;56.00;;;;;;4144774;28;20144;-42
2023/02/06 07:15:22;;;;;;;13.00;10.05;;;23.20;56.30;;;;;;4151546;28;20045;-45
2023/02/06 07:17:45;;;;;;;11.38;9.63;;;23.20;56.20;;;;;;4150970;28;20037;-41
2023/02/06 07:20:08;;;;;;;9.60;7.82;;;23.20;56.40;;;;;;4149349;28;20045;-41
2023/02/06 07:22:30;;;;;;;10.38;8.18;;;23.20;56.20;;;;;;4152984;28;20044;-45
2023/02/06 07:24:53;;;;;;;10.38;7.97;;;23.10;56.40;;;;;;4150270;28;20045;-40
2023/02/06 07:27:15;;;;;;;9.00;7.00;;;23.10;56.20;;;;;;4145910;28;20529;-46
2023/02/06 07:29:38;;;;;;;8.40;6.43;;;23.10;56.30;;;;;;4145907;28;20456;-43
2023/02/06 07:32:00;;;;;;;9.07;5.38;;;23.00;56.20;;;;;;4149566;28;20030;-43
2023/02/06 07:34:23;;;;;;;6.90;5.30;;;23.00;56.40;;;;;;4151233;28;20048;-47
2023/02/06 07:36:46;;;;;;;6.15;4.95;;;23.00;56.40;;;;;;4151654;28;20196;-50
2023/02/06 07:39:08;;;;;;;5.53;4.30;;;22.90;56.30;;;;;;4151956;28;20504;-44
2023/02/06 07:41:30;;;;;;;6.68;4.82;;;22.90;56.30;;;;;;4152103;28;20060;-41
2023/02/06 07:43:53;;;;;;;5.70;3.90;;;22.80;56.40;;;;;;4148520;28;20037;-46
2023/02/06 07:46:16;;;;;;;6.68;4.05;;;22.90;56.90;;;;;;4152013;28;20516;-47
2023/02/06 07:48:38;;;;;;;5.22;3.47;;;22.90;57.20;;;;;;4147730;28;20607;-46
2023/02/06 07:51:07;;;;;;;6.45;3.40;;;23.00;57.30;;;;;;4151812;28;20462;-46
2023/02/06 07:53:29;;;;;;;5.65;3.10;;;23.20;57.30;;;;;;4152547;28;20034;-46
2023/02/06 07:55:51;;;;;;;5.20;2.60;;;23.40;57.50;;;;;;4153163;28;20077;-44
2023/02/06 07:58:17;;;;;;;8.45;2.60;;;23.60;57.70;;;;;;4153797;28;20041;-50
2023/02/06 08:00:40;;;;;;;3.15;2.05;;;23.80;57.80;;;;;;4153738;28;20068;-45
2023/02/06 08:03:03;;;;;;;4.15;2.05;;;23.90;57.50;;;;;;4154125;28;20499;-50
2023/02/06 08:05:26;;;;;;;2.88;2.13;;;24.00;57.40;;;;;;4153785;28;20040;-47
2023/02/06 08:07:50;;;;;;;3.13;1.77;;;24.20;57.40;;;;;;4154312;28;20316;-46
2023/02/06 08:10:13;;;;;;;3.28;1.80;;;24.30;57.60;;;;;;4154271;28;20041;-48
2023/02/06 08:12:35;;;;;;;2.30;1.52;;;24.50;57.40;;;;;;4151031;28;20029;-48
2023/02/06 08:14:57;;;;;;;2.67;1.55;;;24.60;57.40;;;;;;4156709;28;20129;-45
2023/02/06 08:17:20;;;;;;;2.13;1.35;;;24.70;57.40;;;;;;4156327;28;20106;-46
2023/02/06 08:19:42;;;;;;;2.28;1.30;;;24.80;57.40;;;;;;4156791;28;20041;-46
2023/02/06 08:22:05;;;;;;;2.90;1.55;;;24.90;57.40;;;;;;4149088;28;20048;-46
2023/02/06 08:24:27;;;;;;;2.55;1.50;;;25.00;57.30;;;;;;4146568;28;20043;-48
2023/02/06 08:26:50;;;;;;;2.58;1.30;;;25.10;57.20;;;;;;4150587;28;20041;-48
2023/02/06 08:29:13;;;;;;;2.28;1.15;;;25.20;57.20;;;;;;4151893;28;20671;-47
2023/02/06 08:31:41;;;;;;;1.50;1.10;;;25.30;57.00;;;;;;4149560;28;20044;-46
2023/02/06 08:34:05;;;;;;;2.33;0.93;;;25.40;57.00;;;;;;4151581;28;20033;-50
2023/02/06 08:36:30;;;;;;;2.00;1.02;;;25.50;57.00;;;;;;4150145;28;20077;-47
2023/02/06 08:38:53;;;;;;;2.72;1.48;;;25.60;56.90;;;;;;4147198;28;20068;-50
2023/02/06 08:41:23;;;;;;;3.85;1.52;;;25.70;57.90;;;;;;4144633;28;20042;-48
2023/02/06 08:43:47;;;;;;;3.25;1.70;;;25.60;56.10;;;;;;4148746;28;20041;-48
2023/02/06 08:46:09;;;;;;;3.13;1.90;;;25.40;55.20;;;;;;4150437;28;20037;-49
2023/02/06 08:48:31;;;;;;;3.70;1.73;;;25.20;54.80;;;;;;4151470;28;20034;-44
2023/02/06 08:51:04;;;;;;;3.90;1.63;;;25.00;54.60;;;;;;4151451;28;20045;-47
2023/02/06 08:53:27;;;;;;;3.30;1.45;;;24.90;54.60;;;;;;4150692;28;20053;-45
2023/02/06 08:55:49;;;;;;;3.33;1.70;;;24.70;54.50;;;;;;4150728;28;20044;-46
2023/02/06 08:58:11;;;;;;;2.75;1.40;;;24.60;54.30;;;;;;4149631;28;20120;-46
2023/02/06 09:00:34;;;;;;;2.38;1.10;;;24.40;54.10;;;;;;4149119;28;20612;-48
2023/02/06 09:02:56;;;;;;;3.03;1.50;;;24.20;54.10;;;;;;4150618;28;20372;-45
2023/02/06 09:05:20;;;;;;;2.58;1.42;;;24.20;54.20;;;;;;4149667;28;20048;-44
2023/02/06 09:07:42;;;;;;;3.28;1.67;;;24.00;54.10;;;;;;4148473;28;20405;-47
2023/02/06 09:10:05;;;;;;;4.20;1.70;;;23.90;54.20;;;;;;4147633;28;20049;-47
2023/02/06 09:12:27;;;;;;;2.83;1.30;;;23.80;54.20;;;;;;4148016;28;20117;-46
2023/02/06 09:14:49;;;;;;;2.88;1.67;;;23.70;54.30;;;;;;4151950;28;20045;-45
2023/02/06 09:17:12;;;;;;;2.33;1.15;;;23.50;54.40;;;;;;4147400;28;20076;-43
2023/02/06 09:19:34;;;;;;;1.67;1.20;;;23.50;54.60;;;;;;4145969;28;20780;-50
2023/02/06 09:21:57;;;;;;;2.95;1.50;;;23.30;54.50;;;;;;4148900;28;20361;-48
2023/02/06 09:24:19;;;;;;;2.28;1.20;;;23.30;54.70;;;;;;4147388;28;20052;-46
2023/02/06 09:26:43;;;;;;;3.15;1.50;;;23.20;54.70;;;;;;4147357;28;20559;-46
2023/02/06 09:29:07;;;;;;;2.22;1.08;;;23.10;54.90;;;;;;4153053;28;20049;-45
2023/02/06 09:31:30;;;;;;;2.92;1.40;;;23.00;55.00;;;;;;4153676;28;20045;-46
2023/02/06 09:33:53;;;;;;;3.55;1.45;;;22.90;55.20;;;;;;4150699;28;20069;-45
2023/02/06 09:36:19;;;;;;;2.58;1.17;;;22.90;55.10;;;;;;4149242;28;20049;-44
2023/02/06 09:38:47;;;;;;;2.97;1.45;;;22.80;55.00;;;;;;4148070;28;20040;-43
2023/02/06 09:41:44;;;;;;;2.53;1.45;;;22.80;55.10;;;;;;4147998;28;20037;-47
2023/02/06 09:44:18;;;;;;;2.22;1.17;;;22.70;55.20;;;;;;4149848;28;20477;-46
2023/02/06 09:47:06;;;;;;;2.60;1.40;;;22.70;55.40;;;;;;4144923;28;20046;-46
2023/02/06 09:49:48;;;;;;;2.25;1.00;;;22.60;55.50;;;;;;4140999;28;20040;-47
2023/02/06 09:52:30;;;;;;;2.33;1.10;;;22.50;56.00;;;;;;4144949;28;20049;-42
2023/02/06 09:55:14;;;;;;;2.92;1.58;;;22.40;55.90;;;;;;4141845;28;20081;-43
2023/02/06 09:57:45;;;;;;;1.70;1.00;;;22.40;56.10;;;;;;4147491;28;20044;-45
2023/02/06 10:00:27;;;;;;;2.90;1.17;;;22.30;56.10;;;;;;4146497;28;20037;-45
2023/02/06 10:02:53;;;;;;;1.67;0.90;;;22.30;56.10;;;;;;4145859;28;20456;-44
2023/02/06 10:05:41;;;;;;;2.78;1.30;;;22.20;56.00;;;;;;4143536;28;20145;-45
2023/02/06 10:08:16;;;;;;;2.00;0.95;;;22.10;56.10;;;;;;4147569;28;20532;-46
2023/02/06 10:10:55;;;;;;;2.53;1.15;;;22.10;56.10;;;;;;4147651;28;20096;-49
2023/02/06 10:13:39;;;;;;;2.92;1.20;;;22.00;56.20;;;;;;4145133;28;20230;-46
2023/02/06 10:16:13;;;;;;;2.42;1.20;;;22.00;56.20;;;;;;4149283;28;20054;-48
2023/02/06 10:18:52;;;;;;;2.72;1.25;;;21.90;56.30;;;;;;4148264;28;20418;-43
2023/02/06 10:21:25;;;;;;;1.75;1.08;;;21.90;56.00;;;;;;4148197;28;20476;-46
2023/02/06 10:24:19;;;;;;;2.45;1.50;;;21.80;56.60;;;;;;4148353;28;20037;-49
2023/02/06 10:26:42;;;;;;;2.20;1.10;;;21.70;56.60;;;;;;4145341;28;20643;-45
2023/02/06 10:29:06;;;;;;;1.35;1.00;;;21.70;56.80;;;;;;4143817;28;20060;-45
2023/02/06 10:31:28;;;;;;;1.38;0.95;;;21.60;56.80;;;;;;4146704;28;20049;-44
2023/02/06 10:34:08;;;;;;;1.85;1.05;;;21.60;56.70;;;;;;4145141;28;20044;-45
2023/02/06 10:36:49;;;;;;;2.83;1.27;;;21.60;57.00;;;;;;4146880;28;20041;-50
2023/02/06 10:39:31;;;;;;;2.55;1.10;;;21.50;56.90;;;;;;4147802;28;20424;-42
2023/02/06 10:42:06;;;;;;;1.77;1.08;;;21.40;56.80;;;;;;4145481;28;20103;-44
2023/02/06 10:44:55;;;;;;;1.95;1.20;;;21.40;56.90;;;;;;4146202;28;20029;-45
2023/02/06 10:47:30;;;;;;;2.13;1.00;;;21.40;57.10;;;;;;4145981;28;20588;-44
2023/02/06 10:50:02;;;;;;;3.13;1.45;;;21.30;57.00;;;;;;4146189;28;20490;-47
2023/02/06 10:52:34;;;;;;;2.22;1.38;;;21.30;57.20;;;;;;4149673;28;20041;-42
2023/02/06 10:55:19;;;;;;;2.22;1.20;;;21.20;57.20;;;;;;4145124;28;20099;-44
2023/02/06 10:57:45;;;;;;;4.13;1.13;;;21.20;57.10;;;;;;4152025;28;20124;-48
2023/02/06 11:00:24;;;;;;;2.72;1.63;;;21.10;57.60;;;;;;4153100;28;20075;-45
2023/02/06 11:02:55;;;;;;;1.85;0.90;;;21.10;57.80;;;;;;4151691;28;20553;-43
2023/02/06 11:05:22;;;;;;;6.78;1.92;;;21.00;57.80;;;;;;4147689;28;20040;-48
2023/02/06 11:08:02;;;;;;;7.38;1.70;;;21.00;58.10;;;;;;4149220;28;20037;-43
2023/02/06 11:10:26;;;;;;;6.72;1.85;;;21.00;58.60;;;;;;4149234;28;20079;-50
2023/02/06 11:13:14;;;;;;;8.82;1.67;;;21.00;59.60;;;;;;4149909;28;20038;-44
2023/02/06 11:15:39;;;;;;;7.65;2.08;;;21.10;60.70;;;;;;4152788;28;20041;-42
2023/02/06 11:18:04;;;;;;;6.10;1.52;;;21.30;61.80;;;;;;4148493;28;20044;-45
2023/02/06 11:20:32;;;;;;;6.32;1.70;;;21.50;62.10;;;;;;4152050;28;20037;-47
2023/02/06 11:22:54;;;;;;;5.80;1.55;;;21.60;62.60;;;;;;4148469;28;20513;-48
2023/02/06 11:25:43;;;;;;;4.18;1.38;;;21.80;62.70;;;;;;4153910;28;20049;-49
2023/02/06 11:28:17;;;;;;;3.38;1.30;;;22.00;63.00;;;;;;4148107;28;20049;-45
2023/02/06 11:30:42;;;;;;;3.63;1.30;;;22.10;63.40;;;;;;4154111;28;20063;-44
2023/02/06 11:33:25;;;;;;;8.20;1.88;;;22.30;63.40;;;;;;4154527;28;20050;-46
2023/02/06 11:35:58;;;;;;;2.50;0.85;;;22.40;63.30;;;;;;4154627;28;20038;-44
2023/02/06 11:38:23;;;;;;;8.43;1.58;;;22.50;63.40;;;;;;4152785;28;20108;-49
2023/02/06 11:41:04;;;;;;;5.72;1.40;;;22.70;63.40;;;;;;4153634;28;20068;-44
2023/02/06 11:43:48;;;;;;;2.33;0.82;;;22.80;63.60;;;;;;4156568;28;20490;-43
2023/02/06 11:46:26;;;;;;;1.35;0.70;;;22.90;63.50;;;;;;4153517;28;20528;-48
2023/02/06 11:49:00;;;;;;;3.90;1.08;;;23.00;63.50;;;;;;4153929;28;20042;-45
2023/02/06 11:51:23;;;;;;;6.22;1.10;;;23.10;63.40;;;;;;4155226;28;20045;-46
2023/02/06 11:53:56;;;;;;;;;;;23.20;63.60;;;;;;4154474;28;20795;-40
2023/02/06 11:56:20;;;;;;;5.50;1.13;;;23.30;63.30;;;;;;4154658;28;19913;-45
2023/02/06 11:58:44;;;;;;;4.85;1.30;;;23.40;63.40;;;;;;4155433;28;20139;-45
2023/02/06 12:01:15;;;;;;;8.88;2.20;;;23.50;63.20;;;;;;4152218;28;21035;-43
2023/02/06 12:03:45;;;;;;;4.20;1.20;;;23.60;63.20;;;;;;4152680;28;20037;-50
2023/02/06 12:06:12;;;;;;;7.68;2.20;;;23.70;62.80;;;;;;4151275;28;21489;-51
2023/02/06 12:08:51;;;;;;;6.78;1.30;;;23.80;63.10;;;;;;4154648;28;20073;-48
2023/02/06 12:11:25;;;;;;;10.55;1.25;;;23.80;63.00;;;;;;4154229;28;20045;-49
2023/02/06 12:14:06;;;;;;;8.52;1.45;;;23.90;62.80;;;;;;4153651;28;20319;-55
2023/02/06 12:16:32;;;;;;;4.38;0.98;;;24.00;62.80;;;;;;4153766;28;20044;-45
2023/02/06 12:18:57;;;;;;;5.32;1.30;;;24.10;62.80;;;;;;4152331;28;20423;-44
2023/02/06 12:21:23;;;;;;;6.28;1.08;;;24.10;62.80;;;;;;4150936;28;20040;-48
2023/02/06 12:24:18;;;;;;;5.53;1.00;;;24.20;62.70;;;;;;4154452;28;20362;-46
2023/02/06 12:26:41;;;;;;;6.57;1.08;;;24.30;62.70;;;;;;4153276;28;20045;-48
2023/02/06 12:29:23;;;;;;;4.05;1.15;;;24.40;62.60;;;;;;4153511;28;20045;-47
2023/02/06 12:31:52;;;;;;;4.55;0.90;;;24.40;62.50;;;;;;4153247;28;20042;-45
2023/02/06 12:34:22;;;;;;;3.90;0.70;;;24.50;62.80;;;;;;4151631;28;20037;-53
2023/02/06 12:37:09;;;;;;;5.05;1.25;;;24.60;62.40;;;;;;4152279;28;20049;-49
2023/02/06 12:39:32;;;;;;;6.97;1.23;;;24.60;62.30;;;;;;4152587;28;20083;-52
2023/02/06 12:41:55;;;;;;;8.20;1.65;;;24.70;62.20;;;;;;4151585;28;20033;-50
2023/02/06 12:44:36;;;;;;;5.20;1.05;;;24.70;62.10;;;;;;4154895;28;20196;-47